Holabird, South Dakota
Current Conditions -  °F | °C
As of 4:53 AM on Thursday 23 Oct 2014 (Local Time) from KPIR Reporting Station
Clear Clear  
Wind Chill: 42°   Ceiling: Unl
Heat Index: 45°   Visibility: 10mi
Dew Point: 34°   Wind: 6mph
Humidity: 65%   Direction: 210°SSW
Pressure: 29.96"   Gusts: NA
Location:  44.53°N, 99.6°W
Report Text: KPIR 230953Z AUTO 21005KT 10SM CLR 07/01 A2996 RMK AO2 SLP146 T00720011
Loading
Personal Weather Stations






























Interactive Weather Map
Tropical Storm Tracking
New forecast layout! Learn more

10-Day Weather Forecast

Advertisements
Track Severe Weather on mobile